Time;durP1;ratioP1;P1;durP2;ratioP2;P2;SDS_P1;SDS_P2;PMS_P1;PMS_P2;Temp;Humidity;BMP_temperature;BMP_pressure;BME280_temperature;BME280_humidity;BME280_pressure;Samples;Min_cycle;Max_cycle;Signal;HPM_P1;HPM_P2
2023/08/24 00:00:04;;;;;;;11.25;4.35;;;;;;;;;;5058739;28;20415;-75
2023/08/24 00:02:49;;;;;;;5.45;3.88;;;;;;;;;;5058487;28;20041;-76
2023/08/24 00:05:38;;;;;;;7.50;4.57;;;;;;;;;;5047802;28;20083;-76
2023/08/24 00:08:23;;;;;;;5.72;4.30;;;;;;;;;;5047300;28;20037;-76
2023/08/24 00:11:14;;;;;;;5.95;4.40;;;;;;;;;;5044722;28;20072;-75
2023/08/24 00:13:59;;;;;;;7.10;4.60;;;;;;;;;;5046626;28;20057;-64
2023/08/24 00:16:45;;;;;;;8.57;4.32;;;;;;;;;;5045688;28;20059;-77
2023/08/24 00:19:30;;;;;;;7.45;4.68;;;;;;;;;;5046373;28;20028;-77
2023/08/24 00:22:15;;;;;;;5.47;3.65;;;;;;;;;;5042999;28;20040;-79
2023/08/24 00:25:00;;;;;;;8.15;4.55;;;;;;;;;;5045408;28;20048;-77
2023/08/24 00:27:45;;;;;;;7.25;4.63;;;;;;;;;;5041764;28;20543;-77
2023/08/24 00:30:31;;;;;;;6.97;4.55;;;;;;;;;;5059098;28;20047;-71
2023/08/24 00:33:16;;;;;;;6.65;4.53;;;;;;;;;;5044024;28;20040;-65
2023/08/24 00:36:01;;;;;;;7.60;4.97;;;;;;;;;;5026476;28;20109;-75
2023/08/24 00:38:50;;;;;;;8.50;5.43;;;;;;;;;;5045266;28;20036;-75
2023/08/24 00:41:35;;;;;;;8.15;5.00;;;;;;;;;;5047772;28;20036;-74
2023/08/24 00:44:21;;;;;;;6.05;4.50;;;;;;;;;;5045565;28;20504;-73
2023/08/24 00:47:07;;;;;;;8.82;4.13;;;;;;;;;;5032698;28;20071;-74
2023/08/24 00:49:52;;;;;;;8.30;4.88;;;;;;;;;;5055671;28;20041;-75
2023/08/24 00:52:39;;;;;;;7.90;4.30;;;;;;;;;;5033480;28;20036;-74
2023/08/24 00:55:24;;;;;;;7.72;4.53;;;;;;;;;;5047102;28;20061;-74
2023/08/24 00:58:10;;;;;;;9.68;4.70;;;;;;;;;;5047164;28;20491;-74
2023/08/24 01:00:56;;;;;;;8.85;4.82;;;;;;;;;;5048030;28;20040;-73
2023/08/24 01:03:41;;;;;;;9.20;4.95;;;;;;;;;;5041750;28;20468;-74
2023/08/24 01:06:27;;;;;;;6.20;4.07;;;;;;;;;;5044688;28;20033;-74
2023/08/24 01:09:12;;;;;;;12.50;4.55;;;;;;;;;;5054689;28;20037;-76
2023/08/24 01:12:04;;;;;;;6.72;4.25;;;;;;;;;;5041582;28;20029;-65
2023/08/24 01:14:52;;;;;;;7.72;4.72;;;;;;;;;;5044966;28;20308;-65
2023/08/24 01:17:38;;;;;;;6.63;4.07;;;;;;;;;;5045122;28;20033;-65
2023/08/24 01:20:24;;;;;;;6.50;3.78;;;;;;;;;;5045744;28;20037;-65
2023/08/24 01:23:24;;;;;;;6.90;4.97;;;;;;;;;;5041903;28;20060;-64
2023/08/24 01:26:14;;;;;;;8.43;4.20;;;;;;;;;;5044857;28;20021;-75
2023/08/24 01:29:00;;;;;;;5.50;4.05;;;;;;;;;;5053974;28;20059;-77
2023/08/24 01:31:47;;;;;;;8.57;4.28;;;;;;;;;;5056771;28;20041;-75
2023/08/24 01:34:32;;;;;;;6.78;4.32;;;;;;;;;;5040128;28;20520;-76
2023/08/24 01:37:18;;;;;;;7.85;4.53;;;;;;;;;;5045216;28;20376;-75
2023/08/24 01:40:09;;;;;;;8.48;4.65;;;;;;;;;;5040509;28;20045;-74
2023/08/24 01:42:56;;;;;;;7.30;5.20;;;;;;;;;;5041798;28;20483;-74
2023/08/24 01:45:42;;;;;;;6.78;4.68;;;;;;;;;;5039221;28;20116;-69
2023/08/24 01:48:28;;;;;;;8.45;4.93;;;;;;;;;;5042466;28;20122;-65
2023/08/24 01:51:14;;;;;;;7.82;5.05;;;;;;;;;;5042674;28;20029;-65
2023/08/24 01:54:00;;;;;;;6.55;3.97;;;;;;;;;;5043678;28;20380;-64
2023/08/24 01:56:45;;;;;;;7.45;4.90;;;;;;;;;;5036684;28;20028;-67
2023/08/24 01:59:31;;;;;;;9.90;4.70;;;;;;;;;;5044707;28;20044;-66
2023/08/24 02:02:16;;;;;;;9.32;5.80;;;;;;;;;;5039920;28;20029;-67
2023/08/24 02:05:02;;;;;;;7.82;4.30;;;;;;;;;;5039875;28;20384;-76
2023/08/24 02:07:48;;;;;;;7.88;4.93;;;;;;;;;;5038907;28;20483;-78
2023/08/24 02:10:33;;;;;;;11.25;5.60;;;;;;;;;;5036020;28;20029;-77
2023/08/24 02:13:18;;;;;;;6.28;4.30;;;;;;;;;;5040747;28;20234;-76
2023/08/24 02:16:04;;;;;;;11.55;5.13;;;;;;;;;;5043352;28;20037;-77
2023/08/24 02:18:50;;;;;;;9.63;4.68;;;;;;;;;;5041144;28;20414;-78
2023/08/24 02:21:35;;;;;;;8.65;4.85;;;;;;;;;;5057817;28;20037;-78
2023/08/24 02:24:21;;;;;;;8.18;5.05;;;;;;;;;;5055004;28;20415;-76
2023/08/24 02:27:06;;;;;;;7.35;5.57;;;;;;;;;;5043209;28;20091;-75
2023/08/24 02:29:51;;;;;;;7.68;4.47;;;;;;;;;;5041640;28;20099;-75
2023/08/24 02:32:36;;;;;;;7.53;4.50;;;;;;;;;;5029953;28;20048;-74
2023/08/24 02:35:21;;;;;;;7.93;4.82;;;;;;;;;;5041545;28;20025;-75
2023/08/24 02:38:06;;;;;;;6.28;4.90;;;;;;;;;;5040261;28;20031;-74
2023/08/24 02:41:05;;;;;;;10.05;5.18;;;;;;;;;;5042841;28;20051;-66
2023/08/24 02:43:50;;;;;;;9.20;5.60;;;;;;;;;;5055753;28;20036;-73
2023/08/24 02:46:35;;;;;;;6.22;4.55;;;;;;;;;;5040665;28;20476;-74
2023/08/24 02:49:20;;;;;;;7.70;4.80;;;;;;;;;;5042982;28;20047;-74
2023/08/24 02:52:06;;;;;;;7.82;4.75;;;;;;;;;;5043846;28;20048;-74
2023/08/24 02:54:51;;;;;;;7.13;4.90;;;;;;;;;;5042841;28;20029;-73
2023/08/24 02:57:36;;;;;;;8.02;4.93;;;;;;;;;;5045336;28;20033;-72
2023/08/24 03:00:21;;;;;;;7.78;5.43;;;;;;;;;;5057777;28;20037;-64
2023/08/24 03:03:07;;;;;;;8.40;5.45;;;;;;;;;;5041941;28;20044;-68
2023/08/24 03:05:56;;;;;;;8.18;4.63;;;;;;;;;;5044698;28;20041;-70
2023/08/24 03:08:41;;;;;;;8.52;4.70;;;;;;;;;;5042921;28;20036;-66
2023/08/24 03:11:26;;;;;;;6.85;5.10;;;;;;;;;;5040744;28;20049;-66
2023/08/24 03:14:11;;;;;;;7.93;4.70;;;;;;;;;;5042080;28;20033;-65
2023/08/24 03:16:57;;;;;;;7.13;4.80;;;;;;;;;;5042329;28;20041;-77
2023/08/24 03:19:42;;;;;;;5.65;4.47;;;;;;;;;;5041588;28;20056;-73
2023/08/24 03:22:27;;;;;;;7.55;4.75;;;;;;;;;;5028021;28;20615;-74
2023/08/24 03:25:12;;;;;;;7.80;4.78;;;;;;;;;;5055045;28;20056;-74
2023/08/24 03:27:58;;;;;;;9.65;5.18;;;;;;;;;;5039205;28;20121;-74
2023/08/24 03:30:48;;;;;;;9.50;5.47;;;;;;;;;;5037999;28;20053;-75
2023/08/24 03:33:34;;;;;;;11.80;5.93;;;;;;;;;;5043064;28;20032;-75
2023/08/24 03:36:20;;;;;;;9.02;4.85;;;;;;;;;;5037468;28;20076;-75
2023/08/24 03:39:06;;;;;;;5.93;4.72;;;;;;;;;;5040232;28;20041;-70
2023/08/24 03:41:51;;;;;;;6.97;4.85;;;;;;;;;;5039596;28;20024;-72
2023/08/24 03:44:36;;;;;;;10.52;5.90;;;;;;;;;;5052493;28;20459;-71
2023/08/24 03:47:21;;;;;;;8.43;5.25;;;;;;;;;;5036781;28;20490;-69
2023/08/24 03:50:07;;;;;;;7.03;4.93;;;;;;;;;;5042460;28;20116;-69
2023/08/24 03:52:54;;;;;;;8.32;5.35;;;;;;;;;;5042615;28;20060;-66
2023/08/24 03:55:39;;;;;;;11.65;5.20;;;;;;;;;;5039977;28;20021;-65
2023/08/24 03:58:24;;;;;;;9.00;5.30;;;;;;;;;;5041752;28;20064;-66
2023/08/24 04:01:10;;;;;;;9.35;5.38;;;;;;;;;;5042585;28;20041;-65
2023/08/24 04:03:55;;;;;;;8.52;4.50;;;;;;;;;;5040581;28;20040;-66
2023/08/24 04:06:41;;;;;;;8.27;5.93;;;;;;;;;;5041778;28;20369;-64
2023/08/24 04:09:26;;;;;;;9.55;5.85;;;;;;;;;;5042664;28;20043;-64
2023/08/24 04:12:11;;;;;;;9.70;4.53;;;;;;;;;;5041286;28;20037;-74
2023/08/24 04:14:57;;;;;;;8.20;4.47;;;;;;;;;;5028083;28;20067;-66
2023/08/24 04:17:42;;;;;;;7.30;4.53;;;;;;;;;;5054474;28;20081;-65
2023/08/24 04:20:28;;;;;;;9.88;5.35;;;;;;;;;;5038791;28;20622;-65
2023/08/24 04:23:13;;;;;;;6.93;5.05;;;;;;;;;;5057225;28;20029;-66
2023/08/24 04:25:58;;;;;;;6.40;5.00;;;;;;;;;;5038692;28;20465;-67
2023/08/24 04:28:44;;;;;;;7.25;5.10;;;;;;;;;;5032934;28;20083;-65
2023/08/24 04:31:29;;;;;;;7.43;5.25;;;;;;;;;;5042060;28;20043;-77
2023/08/24 04:34:14;;;;;;;8.50;4.72;;;;;;;;;;5039560;28;20148;-68
2023/08/24 04:37:01;;;;;;;9.82;4.63;;;;;;;;;;5045428;28;20052;-67
2023/08/24 04:39:46;;;;;;;10.02;4.72;;;;;;;;;;5041054;28;20072;-67
2023/08/24 04:42:31;;;;;;;10.00;5.13;;;;;;;;;;5046253;28;20033;-67
2023/08/24 04:45:16;;;;;;;7.00;4.40;;;;;;;;;;5043014;28;20402;-67
2023/08/24 04:48:02;;;;;;;6.90;4.40;;;;;;;;;;5057372;28;20037;-68
2023/08/24 04:50:49;;;;;;;10.30;4.75;;;;;;;;;;5045130;28;20041;-76
2023/08/24 04:53:34;;;;;;;8.27;5.18;;;;;;;;;;5045679;28;20484;-65
2023/08/24 04:56:19;;;;;;;7.03;5.18;;;;;;;;;;5045890;28;20094;-65
2023/08/24 04:59:04;;;;;;;7.72;4.88;;;;;;;;;;5043163;28;20114;-66
2023/08/24 05:01:50;;;;;;;7.35;5.45;;;;;;;;;;5045096;28;20104;-65
2023/08/24 05:04:35;;;;;;;8.30;4.90;;;;;;;;;;5042575;28;20033;-65
2023/08/24 05:07:20;;;;;;;10.00;5.18;;;;;;;;;;5040627;28;20064;-66
2023/08/24 05:10:06;;;;;;;6.88;5.03;;;;;;;;;;5048883;28;20044;-67
2023/08/24 05:12:51;;;;;;;10.65;5.70;;;;;;;;;;5044857;28;20032;-66
2023/08/24 05:15:36;;;;;;;7.65;5.20;;;;;;;;;;5045260;28;20032;-66
2023/08/24 05:18:22;;;;;;;8.23;5.30;;;;;;;;;;5047052;28;20387;-69
2023/08/24 05:21:07;;;;;;;9.10;4.90;;;;;;;;;;5047316;28;20025;-66
2023/08/24 05:23:52;;;;;;;12.27;5.47;;;;;;;;;;5045743;28;20033;-66
2023/08/24 05:26:37;;;;;;;7.97;4.90;;;;;;;;;;5047794;28;20029;-67
2023/08/24 05:29:23;;;;;;;7.85;4.70;;;;;;;;;;5050011;28;20476;-68
2023/08/24 05:32:08;;;;;;;8.10;5.15;;;;;;;;;;5047599;28;20464;-65
2023/08/24 05:34:53;;;;;;;8.82;5.45;;;;;;;;;;5047005;28;20025;-68
2023/08/24 05:37:38;;;;;;;9.90;4.95;;;;;;;;;;5049065;28;20021;-67
2023/08/24 05:40:24;;;;;;;7.90;5.22;;;;;;;;;;5047426;28;20082;-66
2023/08/24 05:43:12;;;;;;;7.68;4.78;;;;;;;;;;5047198;28;20043;-66
2023/08/24 05:45:57;;;;;;;8.35;4.38;;;;;;;;;;5047747;28;20116;-71
2023/08/24 05:48:42;;;;;;;8.25;4.75;;;;;;;;;;5036421;28;20029;-67
2023/08/24 05:51:28;;;;;;;8.48;5.05;;;;;;;;;;5039750;28;20052;-70
2023/08/24 05:54:20;;;;;;;8.50;5.78;;;;;;;;;;5060883;28;20383;-76
2023/08/24 05:57:06;;;;;;;11.48;6.07;;;;;;;;;;5027125;28;20095;-74
2023/08/24 05:59:51;;;;;;;12.07;5.22;;;;;;;;;;5046260;28;20024;-74
2023/08/24 06:02:40;;;;;;;12.10;5.93;;;;;;;;;;5034613;28;20477;-74
2023/08/24 06:05:26;;;;;;;6.95;4.90;;;;;;;;;;5047301;28;20119;-67
2023/08/24 06:08:11;;;;;;;10.10;5.53;;;;;;;;;;5046400;28;20044;-69
2023/08/24 06:10:57;;;;;;;10.77;5.93;;;;;;;;;;5062055;28;20044;-70
2023/08/24 06:13:42;;;;;;;12.75;5.70;;;;;;;;;;5044746;28;20037;-67
2023/08/24 06:16:27;;;;;;;6.93;5.22;;;;;;;;;;5045358;28;20057;-68
2023/08/24 06:19:14;;;;;;;6.30;4.65;;;;;;;;;;5043846;28;20076;-68
2023/08/24 06:21:59;;;;;;;13.95;5.70;;;;;;;;;;5046256;28;20059;-75
2023/08/24 06:24:44;;;;;;;14.20;5.70;;;;;;;;;;5046766;28;20033;-66
2023/08/24 06:27:29;;;;;;;10.68;4.68;;;;;;;;;;5040376;28;20045;-67
2023/08/24 06:30:15;;;;;;;9.07;4.65;;;;;;;;;;5057376;28;20086;-68
2023/08/24 06:33:00;;;;;;;8.63;4.22;;;;;;;;;;5045937;28;20059;-66
2023/08/24 06:35:45;;;;;;;8.75;5.15;;;;;;;;;;5043433;28;20073;-66
2023/08/24 06:38:31;;;;;;;7.05;4.65;;;;;;;;;;5044556;28;20539;-74
2023/08/24 06:41:16;;;;;;;8.88;4.63;;;;;;;;;;5042626;28;20174;-73
2023/08/24 06:44:02;;;;;;;8.52;5.55;;;;;;;;;;5044452;28;20037;-76
2023/08/24 06:46:47;;;;;;;10.07;5.03;;;;;;;;;;5035779;28;20068;-77
2023/08/24 06:49:32;;;;;;;6.22;4.47;;;;;;;;;;5039549;28;20106;-79
2023/08/24 06:52:18;;;;;;;8.88;5.22;;;;;;;;;;5046543;28;20032;-78
2023/08/24 06:55:03;;;;;;;11.23;5.55;;;;;;;;;;5046129;28;20079;-77
2023/08/24 06:57:51;;;;;;;8.93;5.28;;;;;;;;;;5044737;28;20733;-65
2023/08/24 07:00:36;;;;;;;9.05;4.53;;;;;;;;;;5042078;28;20041;-75
2023/08/24 07:03:22;;;;;;;8.48;4.20;;;;;;;;;;5046593;28;20128;-75
2023/08/24 07:06:07;;;;;;;11.50;4.47;;;;;;;;;;5041139;28;20032;-75
2023/08/24 07:08:52;;;;;;;9.88;4.13;;;;;;;;;;5046114;28;20033;-75
2023/08/24 07:11:38;;;;;;;9.65;4.13;;;;;;;;;;5045687;28;20063;-81
2023/08/24 07:14:23;;;;;;;10.65;4.68;;;;;;;;;;5045589;28;20043;-79
2023/08/24 07:17:08;;;;;;;6.93;4.78;;;;;;;;;;5044684;28;20032;-76
2023/08/24 07:19:53;;;;;;;7.68;4.50;;;;;;;;;;5045992;28;20032;-66
2023/08/24 07:22:38;;;;;;;6.78;4.03;;;;;;;;;;5043243;28;20063;-66
2023/08/24 07:25:24;;;;;;;7.88;4.18;;;;;;;;;;5044585;28;20039;-65
2023/08/24 07:28:09;;;;;;;6.25;4.50;;;;;;;;;;5045189;28;20343;-64
2023/08/24 07:30:55;;;;;;;9.93;4.80;;;;;;;;;;5041748;28;21435;-66
2023/08/24 07:33:43;;;;;;;7.70;4.63;;;;;;;;;;5045271;28;20028;-70
2023/08/24 07:36:29;;;;;;;7.13;4.03;;;;;;;;;;5040986;28;20563;-67
2023/08/24 07:39:15;;;;;;;7.97;4.88;;;;;;;;;;5045163;28;20090;-66
2023/08/24 07:42:00;;;;;;;11.48;5.30;;;;;;;;;;5044250;28;20393;-64
2023/08/24 07:44:45;;;;;;;9.50;5.05;;;;;;;;;;5045182;28;20120;-65
2023/08/24 07:47:31;;;;;;;12.18;5.60;;;;;;;;;;5042859;28;20032;-62
2023/08/24 07:50:16;;;;;;;10.48;4.75;;;;;;;;;;5038751;28;20535;-65
2023/08/24 07:53:01;;;;;;;11.68;5.30;;;;;;;;;;5041996;28;20091;-79
2023/08/24 07:55:47;;;;;;;10.10;5.00;;;;;;;;;;5041613;28;20120;-75
2023/08/24 07:58:32;;;;;;;8.68;4.80;;;;;;;;;;5044399;28;20242;-76
2023/08/24 08:01:17;;;;;;;11.48;4.60;;;;;;;;;;5045424;28;20110;-76
2023/08/24 08:04:03;;;;;;;10.65;5.07;;;;;;;;;;5045466;28;20032;-83
2023/08/24 08:06:48;;;;;;;12.65;5.47;;;;;;;;;;5055841;28;20127;-81
2023/08/24 08:09:33;;;;;;;11.52;5.20;;;;;;;;;;5041780;28;20384;-78
2023/08/24 08:12:18;;;;;;;8.40;4.80;;;;;;;;;;5042539;28;20040;-70
2023/08/24 08:15:04;;;;;;;7.28;4.18;;;;;;;;;;5055829;28;20079;-66
2023/08/24 08:17:49;;;;;;;9.27;4.97;;;;;;;;;;5046334;28;20089;-69
2023/08/24 08:20:35;;;;;;;12.63;5.38;;;;;;;;;;5050170;28;20055;-67
2023/08/24 08:23:20;;;;;;;8.13;4.72;;;;;;;;;;5044255;28;20043;-67
2023/08/24 08:26:05;;;;;;;13.25;4.93;;;;;;;;;;5041597;28;20072;-66
2023/08/24 08:28:51;;;;;;;10.18;4.85;;;;;;;;;;5045583;28;20029;-65
2023/08/24 08:31:36;;;;;;;9.60;4.72;;;;;;;;;;5045427;28;20059;-72
2023/08/24 08:34:21;;;;;;;12.48;4.68;;;;;;;;;;5039902;28;20052;-64
2023/08/24 08:37:06;;;;;;;8.77;4.38;;;;;;;;;;5038468;28;20037;-67
2023/08/24 08:39:52;;;;;;;9.98;5.03;;;;;;;;;;5028584;28;20052;-68
2023/08/24 08:42:37;;;;;;;7.22;4.28;;;;;;;;;;5028104;28;20799;-65
2023/08/24 08:45:24;;;;;;;9.63;4.82;;;;;;;;;;5009377;28;20044;-66
2023/08/24 08:48:10;;;;;;;7.13;3.45;;;;;;;;;;5009253;28;20083;-68
2023/08/24 08:50:57;;;;;;;8.65;4.13;;;;;;;;;;5017669;28;20088;-79
2023/08/24 08:53:43;;;;;;;9.23;4.32;;;;;;;;;;5017468;28;20040;-79
2023/08/24 08:56:29;;;;;;;11.93;4.05;;;;;;;;;;5015879;28;20049;-80
2023/08/24 08:59:15;;;;;;;11.00;4.88;;;;;;;;;;5012926;28;20480;-77
2023/08/24 09:02:03;;;;;;;7.45;3.97;;;;;;;;;;5018227;28;20825;-81
2023/08/24 09:04:50;;;;;;;9.02;4.50;;;;;;;;;;5032299;28;20103;-82
2023/08/24 09:07:36;;;;;;;6.57;4.35;;;;;;;;;;5021200;28;20036;-83
2023/08/24 09:10:23;;;;;;;6.30;3.95;;;;;;;;;;5020529;28;20329;-62
2023/08/24 09:13:08;;;;;;;6.05;3.38;;;;;;;;;;5048578;28;20029;-64
2023/08/24 09:15:53;;;;;;;6.72;4.25;;;;;;;;;;5048545;28;20120;-62
2023/08/24 09:18:39;;;;;;;6.32;3.97;;;;;;;;;;5045438;28;20039;-63
2023/08/24 09:21:25;;;;;;;7.25;3.80;;;;;;;;;;5047499;28;20053;-64
2023/08/24 09:24:10;;;;;;;12.18;4.30;;;;;;;;;;5033414;28;20029;-63
2023/08/24 09:26:55;;;;;;;6.40;3.90;;;;;;;;;;5046170;28;20027;-64
2023/08/24 09:29:41;;;;;;;4.63;3.17;;;;;;;;;;5047835;28;20037;-63
2023/08/24 09:32:30;;;;;;;8.05;4.60;;;;;;;;;;5048075;28;20040;-64
2023/08/24 09:35:16;;;;;;;11.30;4.00;;;;;;;;;;5044341;28;20087;-65
2023/08/24 09:38:01;;;;;;;11.50;4.45;;;;;;;;;;5044046;28;20049;-66
2023/08/24 09:40:50;;;;;;;9.93;4.35;;;;;;;;;;5044717;28;20029;-66
2023/08/24 09:43:36;;;;;;;7.95;3.60;;;;;;;;;;5045223;28;20713;-74
2023/08/24 09:46:24;;;;;;;5.05;3.58;;;;;;;;;;5046560;28;20349;-62
2023/08/24 09:49:10;;;;;;;6.10;3.55;;;;;;;;;;5064203;28;20035;-63
2023/08/24 09:51:57;;;;;;;10.32;4.68;;;;;;;;;;5046472;28;20071;-63
2023/08/24 09:54:42;;;;;;;6.47;3.92;;;;;;;;;;5045593;28;20113;-64
2023/08/24 09:57:28;;;;;;;6.57;3.40;;;;;;;;;;5047930;28;20070;-64
2023/08/24 10:00:16;;;;;;;6.03;3.63;;;;;;;;;;5043186;28;20037;-64
2023/08/24 10:03:03;;;;;;;7.97;3.97;;;;;;;;;;5060345;28;20439;-77
2023/08/24 10:05:53;;;;;;;7.40;3.45;;;;;;;;;;5044164;28;20041;-64
2023/08/24 10:08:43;;;;;;;8.82;3.80;;;;;;;;;;5026163;28;20020;-65
2023/08/24 10:11:30;;;;;;;6.03;3.80;;;;;;;;;;5045050;28;20037;-63
2023/08/24 10:14:21;;;;;;;10.52;4.22;;;;;;;;;;5043902;28;20033;-63
2023/08/24 10:17:07;;;;;;;6.78;3.35;;;;;;;;;;5044904;28;20040;-65
2023/08/24 10:19:53;;;;;;;6.72;3.83;;;;;;;;;;5043699;28;20104;-73
2023/08/24 10:22:41;;;;;;;7.95;3.58;;;;;;;;;;5043687;28;20040;-71
2023/08/24 10:25:27;;;;;;;4.67;3.50;;;;;;;;;;5045414;28;20031;-73
2023/08/24 10:28:14;;;;;;;7.90;3.90;;;;;;;;;;5046568;28;20321;-72
2023/08/24 10:31:00;;;;;;;5.32;3.53;;;;;;;;;;5046506;28;20044;-71
2023/08/24 10:33:46;;;;;;;7.43;3.85;;;;;;;;;;5043553;28;20120;-71
2023/08/24 10:36:32;;;;;;;6.95;4.03;;;;;;;;;;5044534;28;20147;-69
2023/08/24 10:39:17;;;;;;;5.13;3.95;;;;;;;;;;5044568;28;20029;-63
2023/08/24 10:42:02;;;;;;;5.03;3.58;;;;;;;;;;5044761;28;20025;-63
2023/08/24 10:44:49;;;;;;;8.57;4.00;;;;;;;;;;5046060;28;20036;-65
2023/08/24 10:47:43;;;;;;;5.78;4.45;;;;;;;;;;5056984;28;20046;-65
2023/08/24 10:50:28;;;;;;;8.10;4.10;;;;;;;;;;5047129;28;20114;-64
2023/08/24 10:53:33;;;;;;;7.30;4.80;;;;;;;;;;5046316;28;20037;-65
2023/08/24 10:56:19;;;;;;;6.82;4.18;;;;;;;;;;5032609;28;20036;-80
2023/08/24 10:59:15;;;;;;;6.28;4.13;;;;;;;;;;5031251;28;20495;-65
2023/08/24 11:02:01;;;;;;;10.35;5.68;;;;;;;;;;5044527;28;20090;-64
2023/08/24 11:05:16;;;;;;;20.70;9.90;;;;;;;;;;5043828;28;20029;-68
2023/08/24 11:08:02;;;;;;;35.67;23.23;;;;;;;;;;5045407;28;20036;-63
2023/08/24 11:10:47;;;;;;;58.85;38.20;;;;;;;;;;5045573;28;20037;-64
2023/08/24 11:13:32;;;;;;;56.38;37.83;;;;;;;;;;5044708;28;20067;-63
2023/08/24 11:16:38;;;;;;;25.73;17.63;;;;;;;;;;5044360;28;20086;-69
2023/08/24 11:19:23;;;;;;;28.25;20.40;;;;;;;;;;5043007;28;20478;-75
2023/08/24 11:22:08;;;;;;;26.30;18.13;;;;;;;;;;5045298;28;20032;-75
2023/08/24 11:24:54;;;;;;;24.45;15.63;;;;;;;;;;5041543;28;20384;-71
2023/08/24 11:27:41;;;;;;;21.02;12.00;;;;;;;;;;5044441;28;20033;-71
2023/08/24 11:30:26;;;;;;;16.67;10.55;;;;;;;;;;5043730;28;20127;-74
2023/08/24 11:33:13;;;;;;;13.32;9.65;;;;;;;;;;5045319;28;20075;-66
2023/08/24 11:35:59;;;;;;;15.32;8.45;;;;;;;;;;5058406;28;20045;-75
2023/08/24 11:38:44;;;;;;;14.30;7.40;;;;;;;;;;5045358;28;20037;-77
2023/08/24 11:41:30;;;;;;;15.85;6.95;;;;;;;;;;5046058;28;20110;-78
2023/08/24 11:44:15;;;;;;;9.82;6.53;;;;;;;;;;5045930;28;20178;-76
2023/08/24 11:47:00;;;;;;;11.25;6.70;;;;;;;;;;5047944;28;20033;-77
2023/08/24 11:49:45;;;;;;;10.05;5.50;;;;;;;;;;5048500;28;20039;-78
2023/08/24 11:52:34;;;;;;;7.38;5.47;;;;;;;;;;5042208;28;20041;-72
2023/08/24 11:55:20;;;;;;;;;;;;;;;;;;5059566;28;20067;-76
2023/08/24 11:58:12;;;;;;;9.80;5.45;;;;;;;;;;5048255;28;20023;-76
2023/08/24 12:00:58;;;;;;;8.57;5.32;;;;;;;;;;5049373;28;20048;-77
2023/08/24 12:03:43;;;;;;;9.38;4.95;;;;;;;;;;5048587;28;20056;-77
2023/08/24 12:06:29;;;;;;;10.07;5.13;;;;;;;;;;5049644;28;20095;-74
2023/08/24 12:09:15;;;;;;;11.77;4.78;;;;;;;;;;5046064;28;20037;-77
2023/08/24 12:12:00;;;;;;;7.68;5.03;;;;;;;;;;5046167;28;20458;-75
2023/08/24 12:14:46;;;;;;;7.38;4.82;;;;;;;;;;5049378;28;20029;-71
2023/08/24 12:17:41;;;;;;;8.98;5.95;;;;;;;;;;5046167;28;20059;-74
2023/08/24 12:20:30;;;;;;;9.65;4.88;;;;;;;;;;5047682;28;20041;-71
2023/08/24 12:23:15;;;;;;;9.13;5.40;;;;;;;;;;5048332;28;20043;-71
2023/08/24 12:26:00;;;;;;;8.73;5.40;;;;;;;;;;5060282;28;20704;-72
2023/08/24 12:28:49;;;;;;;9.18;4.78;;;;;;;;;;5048794;28;20251;-76
2023/08/24 12:31:35;;;;;;;9.35;5.63;;;;;;;;;;5045503;28;20516;-66
2023/08/24 12:34:21;;;;;;;9.45;5.78;;;;;;;;;;5048337;28;20050;-65
2023/08/24 12:37:06;;;;;;;11.80;4.60;;;;;;;;;;5063255;28;20039;-64
2023/08/24 12:39:53;;;;;;;9.38;4.80;;;;;;;;;;5048165;28;20051;-63
2023/08/24 12:42:38;;;;;;;12.07;5.88;;;;;;;;;;5035058;28;20032;-64
2023/08/24 12:45:24;;;;;;;9.40;5.45;;;;;;;;;;5048162;28;20315;-65
2023/08/24 12:48:09;;;;;;;8.68;5.35;;;;;;;;;;5048397;28;20534;-79
2023/08/24 12:50:55;;;;;;;10.70;5.72;;;;;;;;;;5043075;28;20496;-73
2023/08/24 12:53:40;;;;;;;11.32;4.85;;;;;;;;;;5046333;28;20097;-73
2023/08/24 12:56:25;;;;;;;9.32;4.95;;;;;;;;;;5047929;28;20039;-73
2023/08/24 12:59:11;;;;;;;9.45;5.03;;;;;;;;;;5047689;28;20037;-71
2023/08/24 13:01:57;;;;;;;8.98;4.68;;;;;;;;;;5048474;28;20060;-74
2023/08/24 13:04:43;;;;;;;11.80;4.47;;;;;;;;;;5046956;28;20476;-71
2023/08/24 13:07:28;;;;;;;6.20;4.50;;;;;;;;;;5046298;28;20132;-72
2023/08/24 13:10:14;;;;;;;10.55;4.90;;;;;;;;;;5043689;28;20107;-80
2023/08/24 13:12:59;;;;;;;8.80;4.88;;;;;;;;;;5048052;28;20392;-81
2023/08/24 13:15:44;;;;;;;9.68;4.78;;;;;;;;;;5045193;28;20403;-78
2023/08/24 13:18:29;;;;;;;14.38;5.82;;;;;;;;;;5047639;28;20032;-76
2023/08/24 13:21:15;;;;;;;11.50;5.13;;;;;;;;;;5048889;28;20047;-76
2023/08/24 13:24:00;;;;;;;9.23;4.95;;;;;;;;;;5043420;28;20043;-63
2023/08/24 13:26:45;;;;;;;8.70;5.05;;;;;;;;;;5042899;28;20169;-75
2023/08/24 13:29:30;;;;;;;9.50;5.43;;;;;;;;;;5046783;28;20107;-77
2023/08/24 13:32:15;;;;;;;10.88;5.35;;;;;;;;;;5045074;28;20041;-74
2023/08/24 13:35:01;;;;;;;8.48;4.88;;;;;;;;;;5046287;28;20285;-74
2023/08/24 13:37:47;;;;;;;9.45;5.55;;;;;;;;;;5035758;28;20021;-77
2023/08/24 13:40:32;;;;;;;9.43;5.18;;;;;;;;;;5047115;28;20075;-77
2023/08/24 13:43:19;;;;;;;9.43;5.38;;;;;;;;;;5042417;28;20033;-63
2023/08/24 13:46:05;;;;;;;12.57;4.88;;;;;;;;;;5038254;28;20060;-78
2023/08/24 13:48:50;;;;;;;9.00;4.85;;;;;;;;;;5051429;28;20033;-76
2023/08/24 13:51:35;;;;;;;9.82;4.63;;;;;;;;;;5057103;28;20045;-78
2023/08/24 13:54:21;;;;;;;11.65;4.93;;;;;;;;;;5046949;28;20040;-76
2023/08/24 13:57:06;;;;;;;7.65;4.70;;;;;;;;;;5047522;28;20166;-76
2023/08/24 13:59:51;;;;;;;10.15;5.10;;;;;;;;;;5038907;28;20632;-76
2023/08/24 14:02:36;;;;;;;15.20;5.93;;;;;;;;;;5029290;28;20025;-76
2023/08/24 14:05:22;;;;;;;11.40;5.10;;;;;;;;;;5046903;28;20543;-76
2023/08/24 14:08:07;;;;;;;9.25;4.85;;;;;;;;;;5045740;28;20100;-77
2023/08/24 14:10:53;;;;;;;13.13;5.00;;;;;;;;;;5059073;28;20037;-78
2023/08/24 14:13:38;;;;;;;15.93;5.45;;;;;;;;;;5059763;28;20036;-77
2023/08/24 14:16:23;;;;;;;13.20;6.55;;;;;;;;;;5045634;28;20502;-77
2023/08/24 14:19:08;;;;;;;12.82;4.78;;;;;;;;;;5046823;28;20028;-73
2023/08/24 14:21:54;;;;;;;13.52;5.00;;;;;;;;;;5046215;28;20058;-62
2023/08/24 14:24:39;;;;;;;11.75;7.10;;;;;;;;;;5042234;28;20044;-61
2023/08/24 14:27:24;;;;;;;14.13;4.68;;;;;;;;;;5045254;28;20052;-64
2023/08/24 14:30:10;;;;;;;12.88;5.43;;;;;;;;;;5042673;28;20475;-65
2023/08/24 14:32:55;;;;;;;10.95;5.43;;;;;;;;;;5044902;28;20040;-62
2023/08/24 14:35:40;;;;;;;6.78;4.25;;;;;;;;;;5043511;28;20032;-65
2023/08/24 14:38:25;;;;;;;10.75;5.18;;;;;;;;;;5062059;28;20037;-64
2023/08/24 14:41:11;;;;;;;10.57;4.38;;;;;;;;;;5046072;28;20108;-72
2023/08/24 14:43:56;;;;;;;7.30;4.28;;;;;;;;;;5040100;28;20037;-71
2023/08/24 14:46:41;;;;;;;16.20;5.63;;;;;;;;;;5046860;28;20032;-72
2023/08/24 14:49:27;;;;;;;7.57;4.43;;;;;;;;;;5046374;28;20072;-72
2023/08/24 14:52:12;;;;;;;9.48;4.80;;;;;;;;;;5047165;28;20314;-72
2023/08/24 14:54:57;;;;;;;11.85;4.70;;;;;;;;;;5045947;28;20028;-72
2023/08/24 14:57:43;;;;;;;12.95;4.25;;;;;;;;;;5047786;28;20036;-73
2023/08/24 15:00:28;;;;;;;11.15;5.28;;;;;;;;;;5039979;28;20043;-74
2023/08/24 15:03:13;;;;;;;10.70;5.22;;;;;;;;;;5047481;28;20060;-73
2023/08/24 15:06:06;;;;;;;12.75;5.40;;;;;;;;;;5052318;28;20035;-73
2023/08/24 15:08:51;;;;;;;11.38;4.53;;;;;;;;;;5049527;28;20040;-72
2023/08/24 15:11:36;;;;;;;11.00;5.82;;;;;;;;;;5044508;28;20045;-74
2023/08/24 15:14:21;;;;;;;15.15;5.68;;;;;;;;;;5041123;28;20040;-75
2023/08/24 15:17:07;;;;;;;9.68;4.47;;;;;;;;;;5063999;28;20029;-77
2023/08/24 15:19:52;;;;;;;9.73;4.40;;;;;;;;;;5048373;28;20068;-74
2023/08/24 15:22:37;;;;;;;9.25;3.13;;;;;;;;;;5047492;28;20024;-75
2023/08/24 15:25:23;;;;;;;6.35;3.67;;;;;;;;;;5043470;28;20044;-75
2023/08/24 15:28:08;;;;;;;7.82;3.08;;;;;;;;;;5044620;28;20032;-76
2023/08/24 15:30:53;;;;;;;6.97;2.88;;;;;;;;;;5043363;28;20549;-75
2023/08/24 15:33:38;;;;;;;9.23;3.28;;;;;;;;;;5045177;28;20043;-76
2023/08/24 15:36:23;;;;;;;7.65;3.60;;;;;;;;;;5029061;28;20044;-73
2023/08/24 15:39:09;;;;;;;4.93;3.17;;;;;;;;;;5033718;28;20653;-73
2023/08/24 15:41:54;;;;;;;7.25;2.92;;;;;;;;;;5014545;28;20415;-73
2023/08/24 15:44:39;;;;;;;5.75;2.67;;;;;;;;;;5017474;28;20029;-72
2023/08/24 15:47:25;;;;;;;4.25;2.70;;;;;;;;;;5014333;28;20033;-75
2023/08/24 15:50:10;;;;;;;7.22;3.17;;;;;;;;;;5015621;28;20029;-75
2023/08/24 15:52:58;;;;;;;5.95;2.97;;;;;;;;;;5014015;28;20108;-66
2023/08/24 15:55:43;;;;;;;7.28;2.75;;;;;;;;;;5012465;28;20060;-74
2023/08/24 15:58:29;;;;;;;7.25;2.83;;;;;;;;;;5020222;28;20041;-74
2023/08/24 16:01:14;;;;;;;5.30;2.38;;;;;;;;;;5030139;28;20092;-73
2023/08/24 16:03:59;;;;;;;5.75;3.28;;;;;;;;;;5024221;28;20484;-74
2023/08/24 16:06:45;;;;;;;5.90;2.83;;;;;;;;;;5042817;28;20411;-73
2023/08/24 16:09:30;;;;;;;4.60;2.83;;;;;;;;;;5021801;28;20471;-65
2023/08/24 16:12:15;;;;;;;6.90;2.60;;;;;;;;;;5006805;28;20033;-75
2023/08/24 16:15:02;;;;;;;5.03;2.38;;;;;;;;;;5027610;28;20037;-76
2023/08/24 16:17:48;;;;;;;6.22;2.78;;;;;;;;;;5011634;28;20080;-74
2023/08/24 16:20:33;;;;;;;3.97;2.17;;;;;;;;;;5006271;28;20044;-74
2023/08/24 16:23:19;;;;;;;4.82;2.25;;;;;;;;;;5018075;28;20032;-73
2023/08/24 16:26:04;;;;;;;4.18;2.60;;;;;;;;;;5019331;28;20381;-74
2023/08/24 16:28:50;;;;;;;5.13;2.28;;;;;;;;;;5039234;28;20058;-61